createdAt,value
2018-06-03T00:00:13.419Z,58.92
2018-06-03T00:00:44.588Z,58.82
2018-06-03T00:01:15.807Z,58.01
2018-06-03T00:01:46.987Z,58.44
2018-06-03T00:02:18.168Z,58.72
2018-06-03T00:02:49.329Z,57.99
2018-06-03T00:03:20.537Z,58.01
2018-06-03T00:03:51.705Z,58.44
2018-06-03T00:04:22.869Z,58.18
2018-06-03T00:04:54.033Z,58.77
2018-06-03T00:05:25.213Z,58.26
2018-06-03T00:05:56.388Z,58.83
2018-06-03T00:06:27.553Z,58.63
2018-06-03T00:06:58.726Z,58.88
2018-06-03T00:07:29.949Z,58.59
2018-06-03T00:08:01.121Z,59.58
2018-06-03T00:08:32.321Z,59.37
2018-06-03T00:09:03.482Z,59.26
2018-06-03T00:09:35.258Z,59.27
2018-06-03T00:10:08.425Z,58.78
2018-06-03T00:10:39.613Z,59.34
2018-06-03T00:11:10.842Z,58.98
2018-06-03T00:11:42.019Z,58.35
2018-06-03T00:12:13.234Z,58.93
2018-06-03T00:12:44.405Z,58.72
2018-06-03T00:13:15.582Z,58.76
2018-06-03T00:13:46.845Z,59.00
2018-06-03T00:14:18.079Z,58.71
2018-06-03T00:14:49.313Z,59.13
2018-06-03T00:15:20.561Z,58.47
2018-06-03T00:15:51.744Z,58.42
2018-06-03T00:16:22.908Z,58.69
2018-06-03T00:16:54.178Z,58.62
2018-06-03T00:17:25.451Z,59.39
2018-06-03T00:17:56.680Z,58.53
2018-06-03T00:18:27.862Z,58.97
2018-06-03T00:18:59.037Z,58.50
2018-06-03T00:19:30.197Z,59.02
2018-06-03T00:20:01.421Z,58.74
2018-06-03T00:20:32.593Z,59.17
2018-06-03T00:21:03.762Z,58.79
2018-06-03T00:21:34.926Z,60.31
2018-06-03T00:22:06.157Z,59.43
2018-06-03T00:22:37.390Z,58.89
2018-06-03T00:23:08.625Z,58.52
2018-06-03T00:23:39.812Z,58.05
2018-06-03T00:24:11.038Z,58.18
2018-06-03T00:24:42.274Z,58.16
2018-06-03T00:25:13.498Z,58.07
2018-06-03T00:25:44.662Z,58.51
2018-06-03T00:26:15.932Z,58.14
2018-06-03T00:26:47.165Z,58.05
2018-06-03T00:27:18.389Z,57.85
2018-06-03T00:27:49.564Z,58.08
2018-06-03T00:28:20.741Z,57.43
2018-06-03T00:28:51.917Z,57.76
2018-06-03T00:29:23.139Z,56.45
2018-06-03T00:29:54.317Z,57.43
2018-06-03T00:30:25.543Z,56.88
2018-06-03T00:30:56.708Z,57.39
2018-06-03T00:31:27.889Z,57.39
2018-06-03T00:31:59.073Z,57.06
2018-06-03T00:32:30.249Z,57.88
2018-06-03T00:33:01.425Z,57.74
2018-06-03T00:33:32.599Z,57.82
2018-06-03T00:34:03.776Z,57.57
2018-06-03T00:34:34.994Z,58.35
2018-06-03T00:35:06.230Z,57.78
2018-06-03T00:35:37.412Z,57.92
2018-06-03T00:36:08.587Z,58.25
2018-06-03T00:36:39.754Z,58.97
2018-06-03T00:37:10.986Z,58.64
2018-06-03T00:37:42.220Z,58.56
2018-06-03T00:38:13.396Z,58.51
2018-06-03T00:38:44.553Z,58.36
2018-06-03T00:39:15.781Z,58.38
2018-06-03T00:39:46.955Z,58.91
2018-06-03T00:40:18.147Z,58.62
2018-06-03T00:40:49.313Z,58.48
2018-06-03T00:41:20.485Z,58.45
2018-06-03T00:41:51.658Z,58.57
2018-06-03T00:42:22.833Z,59.19
2018-06-03T00:42:54.006Z,58.72
2018-06-03T00:43:25.233Z,58.46
2018-06-03T00:43:56.412Z,58.71
2018-06-03T00:44:27.584Z,58.60
2018-06-03T00:44:58.749Z,59.05
2018-06-03T00:45:29.928Z,58.47
2018-06-03T00:46:01.103Z,58.49
2018-06-03T00:46:32.268Z,59.01
2018-06-03T00:47:03.522Z,59.44
2018-06-03T00:47:34.713Z,59.20
2018-06-03T00:48:05.933Z,60.22
2018-06-03T00:48:37.110Z,59.96
2018-06-03T00:49:08.280Z,59.50
2018-06-03T00:49:39.506Z,58.89
2018-06-03T00:50:10.688Z,59.38
2018-06-03T00:50:41.853Z,59.39
2018-06-03T00:51:13.073Z,60.13
2018-06-03T00:51:44.250Z,59.85
2018-06-03T00:52:15.417Z,59.86
2018-06-03T00:52:46.629Z,59.04
2018-06-03T00:53:17.930Z,58.87
2018-06-03T00:53:49.106Z,59.59
2018-06-03T00:54:20.325Z,59.41
2018-06-03T00:54:51.558Z,59.41
2018-06-03T00:55:22.736Z,60.38
2018-06-03T00:55:53.905Z,59.80
2018-06-03T00:56:25.073Z,59.41
2018-06-03T00:56:56.246Z,59.84
2018-06-03T00:57:27.409Z,58.92
2018-06-03T00:57:58.669Z,60.42
2018-06-03T00:58:29.849Z,59.58
2018-06-03T00:59:01.017Z,60.00
2018-06-03T00:59:32.184Z,59.76
2018-06-03T01:00:03.357Z,60.08
2018-06-03T01:00:34.521Z,60.10
2018-06-03T01:01:05.692Z,59.98
2018-06-03T01:01:36.913Z,60.17
2018-06-03T01:02:08.092Z,60.47
2018-06-03T01:02:39.260Z,62.61
2018-06-03T01:03:10.525Z,61.90
2018-06-03T01:03:41.706Z,61.09
2018-06-03T01:04:12.873Z,60.56
2018-06-03T01:04:44.039Z,59.80
2018-06-03T01:05:15.218Z,60.00
2018-06-03T01:05:46.390Z,59.36
2018-06-03T01:06:17.568Z,58.97
2018-06-03T01:06:48.836Z,59.88
2018-06-03T01:07:20.009Z,59.45
2018-06-03T01:07:51.241Z,60.59
2018-06-03T01:08:22.425Z,60.12
2018-06-03T01:08:53.591Z,59.03
2018-06-03T01:09:24.762Z,59.37
2018-06-03T01:09:55.938Z,60.77
2018-06-03T01:10:27.104Z,59.56
2018-06-03T01:10:58.277Z,59.44
2018-06-03T01:11:29.445Z,59.57
2018-06-03T01:12:00.698Z,60.00
2018-06-03T01:12:31.882Z,60.48
2018-06-03T01:13:03.053Z,60.99
2018-06-03T01:13:34.265Z,59.94
2018-06-03T01:14:05.453Z,60.19
2018-06-03T01:14:36.623Z,60.44
2018-06-03T01:15:07.847Z,60.56
2018-06-03T01:15:39.018Z,59.75
2018-06-03T01:16:10.246Z,60.02
2018-06-03T01:16:41.420Z,59.85
2018-06-03T01:17:12.590Z,60.06
2018-06-03T01:17:43.761Z,60.19
2018-06-03T01:18:14.930Z,59.90
2018-06-03T01:18:46.097Z,60.43
2018-06-03T01:19:17.272Z,60.42
2018-06-03T01:19:48.489Z,60.50
2018-06-03T01:20:19.665Z,59.94
2018-06-03T01:20:50.848Z,60.09
2018-06-03T01:21:22.065Z,59.93
2018-06-03T01:21:53.254Z,60.44
2018-06-03T01:22:24.437Z,60.68
2018-06-03T01:22:55.604Z,60.61
2018-06-03T01:23:26.842Z,60.47
2018-06-03T01:23:58.080Z,62.07
2018-06-03T01:24:29.263Z,60.57
2018-06-03T01:25:00.428Z,61.10
2018-06-03T01:25:31.613Z,60.43
2018-06-03T01:26:02.785Z,60.55
2018-06-03T01:26:34.001Z,60.70
2018-06-03T01:27:05.181Z,60.87
2018-06-03T01:27:36.345Z,60.30
2018-06-03T01:28:07.517Z,60.72
2018-06-03T01:28:38.685Z,60.29
2018-06-03T01:29:09.861Z,60.53
2018-06-03T01:29:41.032Z,60.61
2018-06-03T01:30:12.222Z,60.50
2018-06-03T01:30:43.445Z,61.63
2018-06-03T01:31:14.633Z,60.94
2018-06-03T01:31:45.933Z,61.64
2018-06-03T01:32:17.121Z,60.94
2018-06-03T01:32:48.655Z,61.13
2018-06-03T01:33:19.821Z,61.04
2018-06-03T01:33:50.990Z,61.52
2018-06-03T01:34:22.161Z,60.90
2018-06-03T01:34:53.340Z,60.62
2018-06-03T01:35:24.506Z,60.79
2018-06-03T01:35:55.728Z,60.60
2018-06-03T01:36:26.954Z,61.73
2018-06-03T01:36:58.177Z,61.70
2018-06-03T01:37:29.357Z,62.56
2018-06-03T01:38:00.622Z,62.39
2018-06-03T01:38:31.857Z,63.26
2018-06-03T01:39:03.040Z,61.84
2018-06-03T01:39:34.217Z,61.35
2018-06-03T01:40:05.380Z,61.71
2018-06-03T01:40:36.551Z,62.16
2018-06-03T01:41:07.721Z,61.57
2018-06-03T01:41:38.895Z,60.83
2018-06-03T01:42:10.064Z,61.30
2018-06-03T01:42:41.277Z,62.06
2018-06-03T01:43:12.553Z,61.64
2018-06-03T01:43:43.792Z,61.08
2018-06-03T01:44:14.976Z,61.48
2018-06-03T01:44:46.198Z,61.06
2018-06-03T01:45:17.372Z,61.74
2018-06-03T01:45:48.542Z,60.80
2018-06-03T01:46:19.716Z,60.74
2018-06-03T01:46:50.881Z,61.31
2018-06-03T01:47:22.049Z,60.80
2018-06-03T01:47:53.212Z,60.57
2018-06-03T01:48:24.467Z,60.24
2018-06-03T01:48:55.641Z,61.12
2018-06-03T01:49:26.866Z,61.66
2018-06-03T01:49:58.041Z,60.78
2018-06-03T01:50:29.255Z,60.39
2018-06-03T01:51:00.478Z,60.46
2018-06-03T01:51:31.648Z,61.17
2018-06-03T01:52:02.813Z,61.70
2018-06-03T01:52:33.977Z,60.64
2018-06-03T01:53:05.150Z,59.75
2018-06-03T01:53:36.312Z,59.64
2018-06-03T01:54:07.481Z,59.77
2018-06-03T01:54:38.737Z,60.28
2018-06-03T01:55:09.918Z,60.35
2018-06-03T01:55:41.145Z,60.38
2018-06-03T01:56:12.410Z,60.73
2018-06-03T01:56:43.634Z,61.17
2018-06-03T01:57:14.812Z,61.60
2018-06-03T01:57:45.977Z,63.02
2018-06-03T01:58:17.153Z,61.98
2018-06-03T01:58:48.375Z,61.69
2018-06-03T01:59:20.310Z,61.62
2018-06-03T01:59:51.541Z,60.68
2018-06-03T02:00:22.726Z,61.14
2018-06-03T02:00:53.895Z,60.03
2018-06-03T02:01:25.103Z,61.31
2018-06-03T02:01:56.330Z,60.96
2018-06-03T02:02:27.521Z,60.37
2018-06-03T02:02:58.745Z,60.49
2018-06-03T02:03:29.912Z,61.61
2018-06-03T02:04:01.128Z,62.33
2018-06-03T02:04:32.393Z,61.46
2018-06-03T02:05:03.626Z,61.97
2018-06-03T02:05:34.858Z,61.04
2018-06-03T02:06:06.069Z,60.88
2018-06-03T02:06:37.237Z,62.05
2018-06-03T02:07:08.407Z,60.59
2018-06-03T02:07:39.585Z,60.34
2018-06-03T02:08:10.806Z,60.75
2018-06-03T02:08:42.029Z,60.07
2018-06-03T02:09:13.206Z,60.01
2018-06-03T02:09:44.373Z,60.22
2018-06-03T02:10:15.538Z,59.23
2018-06-03T02:10:46.761Z,60.33
2018-06-03T02:11:17.932Z,60.49
2018-06-03T02:11:49.189Z,59.78
2018-06-03T02:12:20.420Z,59.71
2018-06-03T02:12:51.601Z,61.10
2018-06-03T02:13:22.761Z,60.25
2018-06-03T02:13:53.928Z,59.33
2018-06-03T02:14:25.145Z,58.61
2018-06-03T02:14:56.321Z,59.11
2018-06-03T02:15:27.545Z,59.06
2018-06-03T02:15:58.717Z,58.99
2018-06-03T02:16:29.881Z,59.40
2018-06-03T02:17:01.046Z,59.03
2018-06-03T02:17:32.216Z,59.93
2018-06-03T02:18:03.381Z,59.56
2018-06-03T02:18:34.545Z,59.88
2018-06-03T02:19:05.708Z,60.10
2018-06-03T02:19:36.936Z,59.77
2018-06-03T02:20:08.235Z,59.40
2018-06-03T02:20:39.461Z,60.17
2018-06-03T02:21:10.691Z,60.33
2018-06-03T02:21:41.923Z,59.97
2018-06-03T02:22:13.163Z,60.36
2018-06-03T02:22:44.391Z,60.37
2018-06-03T02:23:15.579Z,60.51
2018-06-03T02:23:46.745Z,59.92
2018-06-03T02:24:17.912Z,60.62
2018-06-03T02:24:49.081Z,60.05
2018-06-03T02:25:20.276Z,60.42
2018-06-03T02:25:51.444Z,61.12
2018-06-03T02:26:22.674Z,60.30
2018-06-03T02:26:53.860Z,60.83
2018-06-03T02:27:25.087Z,60.70
2018-06-03T02:27:56.269Z,60.81
2018-06-03T02:28:27.442Z,60.64
2018-06-03T02:28:58.654Z,61.17
2018-06-03T02:29:29.816Z,61.23
2018-06-03T02:30:01.038Z,61.41
2018-06-03T02:30:32.285Z,60.81
2018-06-03T02:31:03.461Z,61.17
2018-06-03T02:31:34.683Z,60.91
2018-06-03T02:32:05.861Z,61.60
2018-06-03T02:32:37.118Z,61.80
2018-06-03T02:33:08.288Z,62.41
2018-06-03T02:33:39.518Z,61.47
2018-06-03T02:34:10.742Z,61.77
2018-06-03T02:34:41.912Z,61.79
2018-06-03T02:35:13.094Z,61.67
2018-06-03T02:35:44.266Z,61.91
2018-06-03T02:36:15.441Z,61.52
2018-06-03T02:36:46.704Z,60.92
2018-06-03T02:37:17.951Z,61.67
2018-06-03T02:37:49.137Z,61.80
2018-06-03T02:38:20.354Z,61.51
2018-06-03T02:38:51.538Z,62.37
2018-06-03T02:39:22.710Z,61.98
2018-06-03T02:39:53.925Z,62.57
2018-06-03T02:40:25.139Z,62.74
2018-06-03T02:40:56.310Z,62.81
2018-06-03T02:41:27.533Z,61.91
2018-06-03T02:41:58.718Z,62.07
2018-06-03T02:42:29.948Z,61.82
2018-06-03T02:43:01.169Z,61.12
2018-06-03T02:43:32.397Z,61.34
2018-06-03T02:44:03.621Z,60.75
2018-06-03T02:44:34.841Z,61.41
2018-06-03T02:45:06.078Z,61.29
2018-06-03T02:45:37.258Z,61.27
2018-06-03T02:46:08.446Z,61.11
2018-06-03T02:46:39.673Z,61.94
2018-06-03T02:47:10.909Z,61.28
2018-06-03T02:47:42.085Z,61.09
2018-06-03T02:48:13.350Z,62.76
2018-06-03T02:48:44.520Z,62.51
2018-06-03T02:49:15.741Z,61.61
2018-06-03T02:49:46.928Z,61.29
2018-06-03T02:50:18.099Z,61.91
2018-06-03T02:50:49.370Z,62.13
2018-06-03T02:51:20.547Z,62.65
2018-06-03T02:51:51.767Z,62.42
2018-06-03T02:52:22.996Z,62.63
2018-06-03T02:52:54.179Z,62.54
2018-06-03T02:53:25.353Z,62.88
2018-06-03T02:53:56.586Z,63.03
2018-06-03T02:54:27.775Z,63.18
2018-06-03T02:54:59.000Z,63.94
2018-06-03T02:55:30.192Z,64.14
2018-06-03T02:56:01.458Z,64.03
2018-06-03T02:56:32.700Z,63.35
2018-06-03T02:57:03.998Z,63.80
2018-06-03T02:57:35.180Z,64.69
2018-06-03T02:58:06.349Z,63.80
2018-06-03T02:58:37.585Z,64.23
2018-06-03T02:59:08.759Z,64.23
2018-06-03T02:59:39.924Z,63.52
2018-06-03T03:00:11.096Z,63.77
2018-06-03T03:00:42.318Z,64.30
2018-06-03T03:01:13.520Z,63.85
2018-06-03T03:01:44.738Z,63.66
2018-06-03T03:02:15.918Z,63.44
2018-06-03T03:02:47.082Z,63.76
2018-06-03T03:03:18.255Z,63.28
2018-06-03T03:03:49.474Z,62.82
2018-06-03T03:04:20.662Z,63.63
2018-06-03T03:04:51.833Z,62.67
2018-06-03T03:05:23.056Z,62.41
2018-06-03T03:05:54.350Z,62.64
2018-06-03T03:06:25.536Z,62.66
2018-06-03T03:06:56.703Z,62.85
2018-06-03T03:07:27.877Z,62.62
2018-06-03T03:07:59.045Z,62.52
2018-06-03T03:08:30.208Z,63.16
2018-06-03T03:09:01.439Z,63.39
2018-06-03T03:09:32.640Z,63.47
2018-06-03T03:10:03.812Z,62.63
2018-06-03T03:10:34.988Z,62.79
2018-06-03T03:11:06.210Z,62.51
2018-06-03T03:11:37.377Z,61.79
2018-06-03T03:12:08.545Z,61.42
2018-06-03T03:12:39.773Z,61.73
2018-06-03T03:13:10.950Z,60.75
2018-06-03T03:13:42.173Z,61.36
2018-06-03T03:14:13.402Z,61.17
2018-06-03T03:14:44.586Z,61.19
2018-06-03T03:15:15.813Z,60.90
2018-06-03T03:15:47.050Z,61.08
2018-06-03T03:16:18.225Z,61.59
2018-06-03T03:16:49.398Z,61.04
2018-06-03T03:17:20.617Z,60.89
2018-06-03T03:17:51.798Z,60.60
2018-06-03T03:18:23.013Z,60.98
2018-06-03T03:18:54.180Z,60.58
2018-06-03T03:19:25.403Z,59.71
2018-06-03T03:19:56.580Z,59.92
2018-06-03T03:20:27.793Z,59.62
2018-06-03T03:20:58.983Z,58.68
2018-06-03T03:21:30.203Z,58.67
2018-06-03T03:22:01.434Z,58.60
2018-06-03T03:22:32.662Z,58.73
2018-06-03T03:23:03.837Z,58.76
2018-06-03T03:23:35.095Z,58.07
2018-06-03T03:24:06.267Z,58.25
2018-06-03T03:24:37.490Z,57.38
2018-06-03T03:25:08.725Z,57.37
2018-06-03T03:25:39.947Z,56.11
2018-06-03T03:26:11.130Z,55.32
2018-06-03T03:26:42.305Z,55.41
2018-06-03T03:27:13.469Z,54.85
2018-06-03T03:27:44.685Z,54.29
2018-06-03T03:28:15.861Z,54.17
2018-06-03T03:28:47.093Z,54.05
2018-06-03T03:29:18.277Z,54.41
2018-06-03T03:29:49.505Z,54.11
2018-06-03T03:30:20.684Z,54.85
2018-06-03T03:30:51.907Z,54.61
2018-06-03T03:31:23.126Z,54.51
2018-06-03T03:31:54.321Z,54.19
2018-06-03T03:32:25.497Z,53.22
2018-06-03T03:32:56.735Z,52.91
2018-06-03T03:33:27.921Z,52.88
2018-06-03T03:33:59.099Z,51.52
2018-06-03T03:34:30.329Z,52.07
2018-06-03T03:35:01.511Z,52.61
2018-06-03T03:35:32.749Z,51.89
2018-06-03T03:36:03.983Z,52.46
2018-06-03T03:36:35.161Z,51.39
2018-06-03T03:37:06.430Z,51.29
2018-06-03T03:37:37.687Z,50.84
2018-06-03T03:38:08.885Z,50.32
2018-06-03T03:38:40.055Z,50.36
2018-06-03T03:39:11.329Z,49.70
2018-06-03T03:39:42.505Z,49.86
2018-06-03T03:40:13.692Z,49.78
2018-06-03T03:40:44.872Z,48.70
2018-06-03T03:41:16.050Z,47.79
2018-06-03T03:41:47.225Z,47.84
2018-06-03T03:42:18.445Z,46.84
2018-06-03T03:42:49.621Z,46.68
2018-06-03T03:43:20.793Z,47.14
2018-06-03T03:43:51.972Z,46.28
2018-06-03T03:44:23.198Z,47.33
2018-06-03T03:44:54.384Z,48.03
2018-06-03T03:45:25.565Z,47.16
2018-06-03T03:45:56.797Z,47.68
2018-06-03T03:46:27.988Z,47.92
2018-06-03T03:46:59.255Z,47.79
2018-06-03T03:47:30.437Z,47.37
2018-06-03T03:48:01.608Z,47.55
2018-06-03T03:48:32.781Z,46.64
2018-06-03T03:49:04.006Z,46.30
2018-06-03T03:49:35.239Z,45.90
2018-06-03T03:50:06.421Z,44.22
2018-06-03T03:50:37.590Z,43.49
2018-06-03T03:51:08.756Z,42.75
2018-06-03T03:51:39.931Z,43.35
2018-06-03T03:52:11.181Z,42.62
2018-06-03T03:52:42.369Z,43.20
2018-06-03T03:53:13.533Z,42.43
2018-06-03T03:53:44.739Z,42.71
2018-06-03T03:54:15.917Z,42.73
2018-06-03T03:54:47.130Z,41.97
2018-06-03T03:55:18.306Z,42.20
2018-06-03T03:55:49.538Z,42.97
2018-06-03T03:56:20.717Z,43.60
2018-06-03T03:56:51.926Z,44.17
2018-06-03T03:57:23.097Z,44.54
2018-06-03T03:57:54.314Z,44.58
2018-06-03T03:58:25.496Z,45.44
2018-06-03T03:58:56.717Z,46.63
2018-06-03T03:59:27.933Z,47.23
2018-06-03T03:59:59.163Z,47.20
2018-06-03T04:00:30.347Z,47.16
2018-06-03T04:01:01.515Z,46.49
2018-06-03T04:01:32.688Z,46.10
2018-06-03T04:02:03.876Z,45.19
2018-06-03T04:02:35.056Z,44.92
2018-06-03T04:03:06.234Z,45.12
2018-06-03T04:03:37.451Z,45.71
2018-06-03T04:04:08.666Z,44.67
2018-06-03T04:04:39.845Z,45.07
2018-06-03T04:05:11.020Z,45.18
2018-06-03T04:05:42.190Z,44.72
2018-06-03T04:06:13.414Z,45.25
2018-06-03T04:06:44.601Z,45.10
2018-06-03T04:07:15.868Z,45.60
2018-06-03T04:07:47.091Z,46.22
2018-06-03T04:08:18.290Z,46.87
2018-06-03T04:08:49.518Z,47.49
2018-06-03T04:09:20.692Z,47.95
2018-06-03T04:09:51.945Z,48.90
2018-06-03T04:10:23.131Z,48.56
2018-06-03T04:10:54.302Z,49.46
2018-06-03T04:11:25.480Z,49.09
2018-06-03T04:11:56.697Z,48.13
2018-06-03T04:12:27.879Z,47.10
2018-06-03T04:12:59.049Z,46.81
2018-06-03T04:13:30.230Z,46.12
2018-06-03T04:14:01.460Z,46.47
2018-06-03T04:14:32.628Z,46.06
2018-06-03T04:15:03.805Z,45.50
2018-06-03T04:15:35.027Z,46.07
2018-06-03T04:16:06.211Z,45.77
2018-06-03T04:16:37.435Z,46.85
2018-06-03T04:17:08.686Z,47.08
2018-06-03T04:17:39.868Z,47.25
2018-06-03T04:18:11.091Z,47.06
2018-06-03T04:18:42.277Z,46.77
2018-06-03T04:19:13.502Z,47.11
2018-06-03T04:19:44.721Z,46.17
2018-06-03T04:20:15.898Z,46.15
2018-06-03T04:20:47.070Z,46.77
2018-06-03T04:21:18.245Z,46.14
2018-06-03T04:21:49.473Z,47.18
2018-06-03T04:22:20.673Z,47.27
2018-06-03T04:22:51.846Z,47.60
2018-06-03T04:23:23.065Z,47.95
2018-06-03T04:23:54.240Z,48.37
2018-06-03T04:24:25.444Z,48.73
2018-06-03T04:24:56.613Z,48.60
2018-06-03T04:25:27.788Z,48.26
2018-06-03T04:25:59.018Z,47.48
2018-06-03T04:26:30.196Z,47.07
2018-06-03T04:27:01.462Z,46.70
2018-06-03T04:27:32.677Z,46.10
2018-06-03T04:28:03.876Z,44.69
2018-06-03T04:28:35.043Z,43.94
2018-06-03T04:29:06.212Z,44.27
2018-06-03T04:29:37.393Z,43.39
2018-06-03T04:30:08.578Z,44.39
2018-06-03T04:30:39.753Z,44.24
2018-06-03T04:31:10.985Z,44.67
2018-06-03T04:31:42.172Z,45.96
2018-06-03T04:32:13.441Z,46.21
2018-06-03T04:32:44.638Z,46.28
2018-06-03T04:33:15.810Z,45.43
2018-06-03T04:33:47.034Z,45.38
2018-06-03T04:34:18.217Z,45.48
2018-06-03T04:34:49.381Z,44.52
2018-06-03T04:35:20.601Z,43.92
2018-06-03T04:35:51.786Z,43.10
2018-06-03T04:36:22.957Z,43.18
2018-06-03T04:36:54.189Z,41.67
2018-06-03T04:37:25.421Z,41.03
2018-06-03T04:37:56.640Z,41.15
2018-06-03T04:38:27.810Z,41.45
2018-06-03T04:38:59.030Z,41.30
2018-06-03T04:39:30.217Z,42.39
2018-06-03T04:40:01.442Z,42.36
2018-06-03T04:40:32.620Z,42.97
2018-06-03T04:41:03.798Z,43.41
2018-06-03T04:41:34.966Z,43.58
2018-06-03T04:42:06.142Z,43.11
2018-06-03T04:42:37.365Z,44.03
2018-06-03T04:43:08.589Z,44.12
2018-06-03T04:43:39.764Z,45.07
2018-06-03T04:44:10.938Z,44.82
2018-06-03T04:44:42.164Z,45.35
2018-06-03T04:45:13.350Z,45.63
2018-06-03T04:45:44.517Z,46.66
2018-06-03T04:46:15.769Z,47.18
2018-06-03T04:46:46.957Z,47.08
2018-06-03T04:47:18.122Z,48.17
2018-06-03T04:47:49.328Z,47.84
2018-06-03T04:48:20.502Z,48.56
2018-06-03T04:48:51.720Z,47.88
2018-06-03T04:49:22.902Z,48.30
2018-06-03T04:49:54.081Z,47.64
2018-06-03T04:50:25.306Z,47.06
2018-06-03T04:50:56.534Z,46.83
2018-06-03T04:51:27.720Z,45.98
2018-06-03T04:51:58.900Z,45.87
2018-06-03T04:52:30.117Z,45.32
2018-06-03T04:53:01.345Z,46.02
2018-06-03T04:53:32.573Z,46.29
2018-06-03T04:54:03.854Z,46.34
2018-06-03T04:54:35.034Z,46.51
2018-06-03T04:55:06.211Z,46.10
2018-06-03T04:55:37.440Z,46.40
2018-06-03T04:56:08.673Z,45.41
2018-06-03T04:56:39.861Z,43.76
2018-06-03T04:57:11.101Z,43.25
2018-06-03T04:57:42.371Z,41.86
2018-06-03T04:58:13.549Z,41.26
2018-06-03T04:58:44.844Z,40.33
2018-06-03T04:59:16.037Z,40.31
2018-06-03T04:59:47.257Z,39.54
2018-06-03T05:00:18.440Z,38.84
2018-06-03T05:00:49.670Z,38.48
2018-06-03T05:01:20.852Z,37.12
2018-06-03T05:01:52.020Z,36.46
2018-06-03T05:02:23.188Z,35.85
2018-06-03T05:02:54.357Z,35.63
2018-06-03T05:03:25.538Z,36.14
2018-06-03T05:03:56.839Z,35.90
2018-06-03T05:04:28.118Z,35.39
2018-06-03T05:04:59.354Z,34.84
2018-06-03T05:05:30.586Z,35.30
2018-06-03T05:06:01.780Z,35.02
2018-06-03T05:06:32.956Z,34.46
2018-06-03T05:07:04.129Z,34.88
2018-06-03T05:07:35.311Z,33.52
2018-06-03T05:08:06.511Z,34.04
2018-06-03T05:08:37.738Z,33.67
2018-06-03T05:09:08.973Z,33.60
2018-06-03T05:09:40.209Z,33.46
2018-06-03T05:10:11.445Z,33.76
2018-06-03T05:10:42.625Z,33.71
2018-06-03T05:11:13.800Z,33.83
2018-06-03T05:11:45.039Z,33.63
2018-06-03T05:12:16.277Z,33.02
2018-06-03T05:12:47.646Z,32.50
2018-06-03T05:13:18.832Z,33.42
2018-06-03T05:13:50.015Z,32.66
2018-06-03T05:14:21.200Z,33.41
2018-06-03T05:14:52.395Z,33.13
2018-06-03T05:15:23.616Z,33.03
2018-06-03T05:15:54.850Z,33.52
2018-06-03T05:16:26.081Z,33.29
2018-06-03T05:16:57.269Z,33.65
2018-06-03T05:17:28.498Z,33.07
2018-06-03T05:17:59.691Z,32.44
2018-06-03T05:18:30.922Z,32.27
2018-06-03T05:19:02.113Z,31.83
2018-06-03T05:19:33.285Z,31.38
2018-06-03T05:20:04.534Z,31.30
2018-06-03T05:20:35.780Z,30.72
2018-06-03T05:21:06.968Z,30.76
2018-06-03T05:21:38.143Z,30.79
2018-06-03T05:22:09.316Z,30.46
2018-06-03T05:22:40.493Z,30.35
2018-06-03T05:23:12.289Z,30.78
2018-06-03T05:23:43.472Z,31.24
2018-06-03T05:24:14.697Z,31.27
2018-06-03T05:24:45.892Z,31.36
2018-06-03T05:25:17.116Z,31.57
2018-06-03T05:25:48.305Z,31.73
2018-06-03T05:26:19.582Z,32.06
2018-06-03T05:26:50.828Z,32.45
2018-06-03T05:27:22.033Z,32.29
2018-06-03T05:27:53.298Z,32.83
2018-06-03T05:28:24.484Z,32.63
2018-06-03T05:28:55.665Z,32.87
2018-06-03T05:29:26.845Z,32.37
2018-06-03T05:29:58.076Z,32.83
2018-06-03T05:30:29.256Z,33.19
2018-06-03T05:31:00.489Z,33.33
2018-06-03T05:31:31.791Z,33.16
2018-06-03T05:32:03.029Z,32.92
2018-06-03T05:32:34.227Z,32.68
2018-06-03T05:33:05.459Z,32.80
2018-06-03T05:33:36.657Z,32.62
2018-06-03T05:34:07.836Z,32.60
2018-06-03T05:34:39.013Z,32.54
2018-06-03T05:35:10.248Z,32.58
2018-06-03T05:35:41.433Z,32.56
2018-06-03T05:36:12.657Z,32.41
2018-06-03T05:36:43.939Z,32.49
2018-06-03T05:37:15.120Z,32.79
2018-06-03T05:37:46.296Z,32.76
2018-06-03T05:38:17.522Z,32.78
2018-06-03T05:38:48.770Z,33.24
2018-06-03T05:39:19.960Z,33.87
2018-06-03T05:39:51.189Z,33.79
2018-06-03T05:40:22.369Z,34.17
2018-06-03T05:40:53.581Z,34.75
2018-06-03T05:41:24.761Z,34.91
2018-06-03T05:41:55.939Z,35.37
2018-06-03T05:42:27.144Z,35.91
2018-06-03T05:42:58.328Z,36.20
2018-06-03T05:43:29.510Z,36.71
2018-06-03T05:44:00.738Z,37.21
2018-06-03T05:44:31.956Z,37.15
2018-06-03T05:45:03.182Z,37.16
2018-06-03T05:45:34.429Z,37.31
2018-06-03T05:46:05.617Z,37.05
2018-06-03T05:46:36.873Z,37.31
2018-06-03T05:47:08.053Z,37.63
2018-06-03T05:47:39.235Z,37.75
2018-06-03T05:48:10.449Z,37.77
2018-06-03T05:48:41.677Z,38.02
2018-06-03T05:49:12.866Z,38.02
2018-06-03T05:49:44.100Z,37.55
2018-06-03T05:50:15.301Z,37.38
2018-06-03T05:50:46.479Z,37.73
2018-06-03T05:51:17.657Z,37.76
2018-06-03T05:51:48.838Z,38.15
2018-06-03T05:52:20.023Z,38.19
2018-06-03T05:52:51.198Z,38.31
2018-06-03T05:53:22.466Z,38.21
2018-06-03T05:53:53.661Z,38.35
2018-06-03T05:54:24.840Z,38.84
2018-06-03T05:54:56.070Z,38.46
2018-06-03T05:55:27.267Z,38.93
2018-06-03T05:55:58.448Z,38.51
2018-06-03T05:56:29.681Z,38.73
2018-06-03T05:57:00.860Z,39.25
2018-06-03T05:57:32.033Z,39.51
2018-06-03T05:58:03.208Z,39.21
2018-06-03T05:58:34.429Z,39.98
2018-06-03T05:59:05.615Z,39.39
2018-06-03T05:59:36.845Z,40.04
2018-06-03T06:00:08.028Z,39.81
2018-06-03T06:00:39.205Z,39.98
2018-06-03T06:01:10.378Z,39.80
2018-06-03T06:01:41.549Z,39.74
2018-06-03T06:02:12.787Z,39.60
2018-06-03T06:02:44.039Z,39.86
2018-06-03T06:03:15.232Z,39.66
2018-06-03T06:03:46.450Z,39.86
2018-06-03T06:04:17.628Z,40.02
2018-06-03T06:04:48.857Z,39.88
2018-06-03T06:05:20.098Z,40.15
2018-06-03T06:05:51.293Z,40.22
2018-06-03T06:06:22.508Z,39.32
2018-06-03T06:06:53.734Z,39.57
2018-06-03T06:07:24.917Z,39.18
2018-06-03T06:07:56.099Z,39.36
2018-06-03T06:08:27.365Z,39.23
2018-06-03T06:08:58.601Z,39.73
2018-06-03T06:09:29.762Z,39.23
2018-06-03T06:10:00.962Z,39.39
2018-06-03T06:10:32.140Z,39.38
2018-06-03T06:11:03.333Z,39.42
2018-06-03T06:11:34.560Z,39.48
2018-06-03T06:12:05.752Z,40.15
2018-06-03T06:12:36.932Z,40.38
2018-06-03T06:13:08.101Z,40.97
2018-06-03T06:13:39.277Z,40.89
2018-06-03T06:14:10.444Z,41.95
2018-06-03T06:14:41.626Z,42.54
2018-06-03T06:15:12.853Z,42.02
2018-06-03T06:15:44.081Z,42.17
2018-06-03T06:16:15.317Z,41.82
2018-06-03T06:16:46.493Z,42.41
2018-06-03T06:17:17.676Z,40.85
2018-06-03T06:17:48.847Z,41.99
2018-06-03T06:18:20.029Z,42.03
2018-06-03T06:18:51.197Z,42.28
2018-06-03T06:19:22.422Z,41.76
2018-06-03T06:19:53.613Z,42.15
2018-06-03T06:20:24.836Z,41.81
2018-06-03T06:20:56.069Z,42.45
2018-06-03T06:21:27.252Z,42.59
2018-06-03T06:21:58.481Z,42.33
2018-06-03T06:22:29.674Z,42.23
2018-06-03T06:23:00.905Z,42.80
2018-06-03T06:23:32.088Z,42.17
2018-06-03T06:24:03.314Z,42.93
2018-06-03T06:24:34.501Z,42.55
2018-06-03T06:25:05.725Z,41.73
2018-06-03T06:25:36.945Z,41.50
2018-06-03T06:26:08.125Z,41.29
2018-06-03T06:26:39.390Z,39.92
2018-06-03T06:27:10.638Z,40.91
2018-06-03T06:27:41.865Z,40.63
2018-06-03T06:28:13.056Z,41.27
2018-06-03T06:28:44.236Z,41.00
2018-06-03T06:29:15.404Z,41.37
2018-06-03T06:29:46.581Z,41.95
2018-06-03T06:30:17.813Z,41.32
2018-06-03T06:30:49.005Z,41.70
2018-06-03T06:31:20.272Z,41.61
2018-06-03T06:31:51.456Z,42.23
2018-06-03T06:32:22.637Z,42.54
2018-06-03T06:32:53.868Z,42.37
2018-06-03T06:33:25.037Z,41.87
2018-06-03T06:33:56.227Z,41.50
2018-06-03T06:34:27.453Z,41.46
2018-06-03T06:34:58.633Z,42.03
2018-06-03T06:35:29.805Z,42.20
2018-06-03T06:36:01.038Z,41.78
2018-06-03T06:36:32.227Z,42.18
2018-06-03T06:37:03.402Z,42.44
2018-06-03T06:37:34.636Z,41.80
2018-06-03T06:38:06.021Z,41.74
2018-06-03T06:38:37.224Z,42.42
2018-06-03T06:39:08.453Z,43.25
2018-06-03T06:39:39.642Z,42.65
2018-06-03T06:40:10.865Z,43.38
2018-06-03T06:40:42.106Z,43.75
2018-06-03T06:41:13.285Z,41.89
2018-06-03T06:41:44.500Z,41.82